sensor_id;sensor_type;location;lat;lon;timestamp;pressure;altitude;pressure_sealevel;temperature;humidity
60019;BME280;45870;42.528;26.740;2023-02-16T00:00:05;101105.25;;;6.64;39.01
60019;BME280;45870;42.528;26.740;2023-02-16T00:02:30;101103.78;;;6.53;39.16
60019;BME280;45870;42.528;26.740;2023-02-16T00:04:56;101105.69;;;6.36;39.36
60019;BME280;45870;42.528;26.740;2023-02-16T00:07:22;101115.09;;;6.24;39.11
60019;BME280;45870;42.528;26.740;2023-02-16T00:09:47;101092.03;;;5.99;39.57
60019;BME280;45870;42.528;26.740;2023-02-16T00:12:17;101113.88;;;6.35;39.56
60019;BME280;45870;42.528;26.740;2023-02-16T00:15:19;101115.63;;;5.71;41.90
60019;BME280;45870;42.528;26.740;2023-02-16T00:17:45;101097.16;;;6.25;39.80
60019;BME280;45870;42.528;26.740;2023-02-16T00:20:17;101048.13;;;6.08;39.00
60019;BME280;45870;42.528;26.740;2023-02-16T00:22:43;101120.66;;;5.82;40.00
60019;BME280;45870;42.528;26.740;2023-02-16T00:25:09;101054.38;;;5.36;40.09
60019;BME280;45870;42.528;26.740;2023-02-16T00:27:36;101114.78;;;6.19;38.85
60019;BME280;45870;42.528;26.740;2023-02-16T00:30:11;101114.44;;;6.06;39.26
60019;BME280;45870;42.528;26.740;2023-02-16T00:32:38;101119.84;;;5.90;40.37
60019;BME280;45870;42.528;26.740;2023-02-16T00:35:12;101118.16;;;5.89;39.71
60019;BME280;45870;42.528;26.740;2023-02-16T00:37:38;101045.81;;;5.57;39.94
60019;BME280;45870;42.528;26.740;2023-02-16T00:40:04;101118.47;;;6.18;39.59
60019;BME280;45870;42.528;26.740;2023-02-16T00:42:31;101113.53;;;6.38;39.29
60019;BME280;45870;42.528;26.740;2023-02-16T00:44:58;100894.16;;;4.52;39.81
60019;BME280;45870;42.528;26.740;2023-02-16T00:47:37;101109.78;;;6.08;39.06
60019;BME280;45870;42.528;26.740;2023-02-16T00:50:18;101111.47;;;6.01;39.51
60019;BME280;45870;42.528;26.740;2023-02-16T00:52:47;101108.44;;;6.04;38.41
60019;BME280;45870;42.528;26.740;2023-02-16T00:55:18;101106.25;;;6.08;39.31
60019;BME280;45870;42.528;26.740;2023-02-16T01:00:18;101096.56;;;5.58;39.30
60019;BME280;45870;42.528;26.740;2023-02-16T01:02:47;101096.03;;;5.95;38.67
60019;BME280;45870;42.528;26.740;2023-02-16T01:05:13;100939.16;;;4.89;38.99
60019;BME280;45870;42.528;26.740;2023-02-16T01:07:40;101094.38;;;5.70;39.35
60019;BME280;45870;42.528;26.740;2023-02-16T01:10:24;101084.31;;;5.39;39.16
60019;BME280;45870;42.528;26.740;2023-02-16T01:13:10;101094.72;;;5.59;38.82
60019;BME280;45870;42.528;26.740;2023-02-16T01:15:37;101098.56;;;5.64;39.33
60019;BME280;45870;42.528;26.740;2023-02-16T01:18:04;101098.06;;;5.44;39.17
60019;BME280;45870;42.528;26.740;2023-02-16T01:20:30;101093.53;;;5.37;39.03
60019;BME280;45870;42.528;26.740;2023-02-16T01:22:56;101091.50;;;5.23;38.73
60019;BME280;45870;42.528;26.740;2023-02-16T01:25:22;101090.03;;;5.20;39.02
60019;BME280;45870;42.528;26.740;2023-02-16T01:27:48;101095.84;;;5.08;38.97
60019;BME280;45870;42.528;26.740;2023-02-16T01:30:22;101023.50;;;4.59;39.34
60019;BME280;45870;42.528;26.740;2023-02-16T01:32:48;101080.59;;;5.00;39.14
60019;BME280;45870;42.528;26.740;2023-02-16T01:35:23;101078.75;;;5.00;39.99
60019;BME280;45870;42.528;26.740;2023-02-16T01:37:52;101079.56;;;4.85;40.40
60019;BME280;45870;42.528;26.740;2023-02-16T01:43:19;101071.19;;;4.80;39.35
60019;BME280;45870;42.528;26.740;2023-02-16T01:45:54;101067.41;;;4.48;39.92
60019;BME280;45870;42.528;26.740;2023-02-16T01:48:30;101063.97;;;4.64;39.84
60019;BME280;45870;42.528;26.740;2023-02-16T01:51:12;101076.50;;;4.72;39.70
60019;BME280;45870;42.528;26.740;2023-02-16T01:53:54;101060.72;;;4.11;41.04
60019;BME280;45870;42.528;26.740;2023-02-16T01:56:39;101075.06;;;4.35;40.18
60019;BME280;45870;42.528;26.740;2023-02-16T01:59:25;101064.75;;;4.48;39.59
60019;BME280;45870;42.528;26.740;2023-02-16T02:01:57;101071.22;;;4.04;41.37
60019;BME280;45870;42.528;26.740;2023-02-16T02:07:14;101076.72;;;4.36;40.26
60019;BME280;45870;42.528;26.740;2023-02-16T02:09:57;101079.47;;;4.52;39.74
60019;BME280;45870;42.528;26.740;2023-02-16T02:12:35;101070.56;;;4.44;39.40
60019;BME280;45870;42.528;26.740;2023-02-16T02:15:07;101072.38;;;4.43;40.67
60019;BME280;45870;42.528;26.740;2023-02-16T02:17:33;101068.19;;;4.83;39.94
60019;BME280;45870;42.528;26.740;2023-02-16T02:20:22;101072.53;;;4.84;40.16
60019;BME280;45870;42.528;26.740;2023-02-16T02:23:57;101069.84;;;4.76;39.56
60019;BME280;45870;42.528;26.740;2023-02-16T02:26:48;101074.69;;;4.30;41.56
60019;BME280;45870;42.528;26.740;2023-02-16T02:40:36;101068.63;;;4.62;39.60
60019;BME280;45870;42.528;26.740;2023-02-16T02:43:13;101069.63;;;4.61;39.81
60019;BME280;45870;42.528;26.740;2023-02-16T02:48:29;101070.47;;;4.62;40.20
60019;BME280;45870;42.528;26.740;2023-02-16T02:51:09;101052.66;;;4.78;39.67
60019;BME280;45870;42.528;26.740;2023-02-16T02:54:05;101071.16;;;4.72;39.90
60019;BME280;45870;42.528;26.740;2023-02-16T02:59:44;101011.22;;;4.32;40.52
60019;BME280;45870;42.528;26.740;2023-02-16T03:02:31;101047.94;;;4.64;40.46
60019;BME280;45870;42.528;26.740;2023-02-16T03:04:59;101082.72;;;4.80;39.86
60019;BME280;45870;42.528;26.740;2023-02-16T03:07:26;101077.75;;;4.85;40.83
60019;BME280;45870;42.528;26.740;2023-02-16T03:10:13;101083.91;;;4.78;40.17
60019;BME280;45870;42.528;26.740;2023-02-16T03:13:00;101079.22;;;4.80;40.33
60019;BME280;45870;42.528;26.740;2023-02-16T03:15:27;101087.09;;;4.81;39.99
60019;BME280;45870;42.528;26.740;2023-02-16T03:17:55;101002.53;;;4.30;39.68
60019;BME280;45870;42.528;26.740;2023-02-16T03:20:41;101077.78;;;4.51;40.89
60019;BME280;45870;42.528;26.740;2023-02-16T03:23:27;101081.72;;;4.73;40.15
60019;BME280;45870;42.528;26.740;2023-02-16T03:26:12;101085.56;;;4.79;39.31
60019;BME280;45870;42.528;26.740;2023-02-16T03:28:59;101082.44;;;4.91;40.26
60019;BME280;45870;42.528;26.740;2023-02-16T03:31:47;101088.75;;;4.74;39.81
60019;BME280;45870;42.528;26.740;2023-02-16T03:34:15;101086.13;;;4.48;40.25
60019;BME280;45870;42.528;26.740;2023-02-16T03:36:46;101006.72;;;3.65;40.21
60019;BME280;45870;42.528;26.740;2023-02-16T03:39:12;101088.16;;;4.21;39.90
60019;BME280;45870;42.528;26.740;2023-02-16T03:41:41;101085.75;;;4.10;41.31
60019;BME280;45870;42.528;26.740;2023-02-16T03:44:08;101091.09;;;4.35;40.82
60019;BME280;45870;42.528;26.740;2023-02-16T03:46:33;101088.97;;;4.13;40.00
60019;BME280;45870;42.528;26.740;2023-02-16T03:48:59;101003.47;;;3.79;39.73
60019;BME280;45870;42.528;26.740;2023-02-16T03:51:25;101003.84;;;3.15;41.16
60019;BME280;45870;42.528;26.740;2023-02-16T03:53:51;101086.28;;;3.87;40.35
60019;BME280;45870;42.528;26.740;2023-02-16T03:56:16;101087.44;;;3.41;41.44
60019;BME280;45870;42.528;26.740;2023-02-16T03:58:42;101094.00;;;2.94;43.38
60019;BME280;45870;42.528;26.740;2023-02-16T04:01:08;101087.91;;;3.80;41.90
60019;BME280;45870;42.528;26.740;2023-02-16T04:03:33;101080.06;;;4.38;40.44
60019;BME280;45870;42.528;26.740;2023-02-16T04:05:59;101073.38;;;4.34;39.66
60019;BME280;45870;42.528;26.740;2023-02-16T04:08:25;101086.47;;;4.20;40.58
60019;BME280;45870;42.528;26.740;2023-02-16T04:10:51;101078.34;;;4.29;40.23
60019;BME280;45870;42.528;26.740;2023-02-16T04:13:18;101070.72;;;4.09;39.80
60019;BME280;45870;42.528;26.740;2023-02-16T04:15:44;101078.22;;;4.05;40.10
60019;BME280;45870;42.528;26.740;2023-02-16T04:18:09;101086.97;;;3.64;40.72
60019;BME280;45870;42.528;26.740;2023-02-16T04:20:35;101090.28;;;3.83;40.10
60019;BME280;45870;42.528;26.740;2023-02-16T04:23:01;101082.41;;;3.82;41.04
60019;BME280;45870;42.528;26.740;2023-02-16T04:25:27;101082.84;;;3.95;40.91
60019;BME280;45870;42.528;26.740;2023-02-16T04:27:54;101084.63;;;3.86;40.90
60019;BME280;45870;42.528;26.740;2023-02-16T04:30:22;101017.34;;;3.57;40.90
60019;BME280;45870;42.528;26.740;2023-02-16T04:32:49;101090.50;;;3.90;40.05
60019;BME280;45870;42.528;26.740;2023-02-16T04:35:15;101092.66;;;4.20;40.81
60019;BME280;45870;42.528;26.740;2023-02-16T04:37:40;101101.53;;;4.21;40.65
60019;BME280;45870;42.528;26.740;2023-02-16T04:40:07;101090.97;;;4.11;40.77
60019;BME280;45870;42.528;26.740;2023-02-16T04:42:34;101092.94;;;4.09;40.54
60019;BME280;45870;42.528;26.740;2023-02-16T04:44:59;101031.59;;;3.66;39.77
60019;BME280;45870;42.528;26.740;2023-02-16T04:47:25;101097.25;;;4.02;39.58
60019;BME280;45870;42.528;26.740;2023-02-16T04:49:52;101093.63;;;3.85;40.49
60019;BME280;45870;42.528;26.740;2023-02-16T04:52:18;101096.88;;;3.71;40.56
60019;BME280;45870;42.528;26.740;2023-02-16T04:54:44;101102.97;;;3.64;40.16
60019;BME280;45870;42.528;26.740;2023-02-16T04:57:10;101098.94;;;3.60;40.69
60019;BME280;45870;42.528;26.740;2023-02-16T04:59:36;101101.47;;;3.61;40.20
60019;BME280;45870;42.528;26.740;2023-02-16T05:02:03;101111.72;;;3.74;40.39
60019;BME280;45870;42.528;26.740;2023-02-16T05:04:28;101101.72;;;3.93;40.85
60019;BME280;45870;42.528;26.740;2023-02-16T05:06:54;101097.13;;;3.42;40.90
60019;BME280;45870;42.528;26.740;2023-02-16T05:09:20;101099.75;;;3.78;40.03
60019;BME280;45870;42.528;26.740;2023-02-16T05:11:45;101111.44;;;4.02;40.04
60019;BME280;45870;42.528;26.740;2023-02-16T05:14:32;101112.28;;;4.03;41.19
60019;BME280;45870;42.528;26.740;2023-02-16T05:19:35;101116.66;;;4.38;40.14
60019;BME280;45870;42.528;26.740;2023-02-16T05:22:01;101114.41;;;4.59;39.63
60019;BME280;45870;42.528;26.740;2023-02-16T05:24:27;100902.72;;;3.04;40.05
60019;BME280;45870;42.528;26.740;2023-02-16T05:26:53;101106.53;;;4.58;39.39
60019;BME280;45870;42.528;26.740;2023-02-16T05:29:19;101111.28;;;4.64;39.50
60019;BME280;45870;42.528;26.740;2023-02-16T05:31:45;101113.03;;;4.89;39.01
60019;BME280;45870;42.528;26.740;2023-02-16T05:34:10;101110.97;;;4.75;39.90
60019;BME280;45870;42.528;26.740;2023-02-16T05:36:36;101126.28;;;5.15;39.20
60019;BME280;45870;42.528;26.740;2023-02-16T05:39:02;101129.13;;;5.21;38.45
60019;BME280;45870;42.528;26.740;2023-02-16T05:41:28;101121.81;;;5.64;39.00
60019;BME280;45870;42.528;26.740;2023-02-16T05:43:56;101124.88;;;5.93;38.46
60019;BME280;45870;42.528;26.740;2023-02-16T05:46:23;101130.53;;;6.22;38.17
60019;BME280;45870;42.528;26.740;2023-02-16T05:48:49;100914.59;;;5.57;37.30
60019;BME280;45870;42.528;26.740;2023-02-16T05:51:16;101119.66;;;6.63;37.00
60019;BME280;45870;42.528;26.740;2023-02-16T05:53:42;101135.59;;;6.64;36.97
60019;BME280;45870;42.528;26.740;2023-02-16T05:56:08;101143.56;;;7.42;36.50
60019;BME280;45870;42.528;26.740;2023-02-16T05:58:34;101147.94;;;8.03;35.39
60019;BME280;45870;42.528;26.740;2023-02-16T06:01:00;101140.84;;;8.25;35.14
60019;BME280;45870;42.528;26.740;2023-02-16T06:03:26;101146.00;;;7.97;35.75
60019;BME280;45870;42.528;26.740;2023-02-16T06:05:56;101121.34;;;8.08;35.75
60019;BME280;45870;42.528;26.740;2023-02-16T06:08:23;101149.09;;;8.09;36.01
60019;BME280;45870;42.528;26.740;2023-02-16T06:10:49;101153.09;;;7.90;36.56
60019;BME280;45870;42.528;26.740;2023-02-16T06:13:16;101147.69;;;9.15;35.23
60019;BME280;45870;42.528;26.740;2023-02-16T06:15:41;101162.00;;;9.73;33.50
60019;BME280;45870;42.528;26.740;2023-02-16T06:18:08;101159.66;;;10.33;33.38
60019;BME280;45870;42.528;26.740;2023-02-16T06:20:36;101161.66;;;11.54;31.77
60019;BME280;45870;42.528;26.740;2023-02-16T06:23:02;101131.88;;;12.79;29.41
60019;BME280;45870;42.528;26.740;2023-02-16T06:25:28;101165.72;;;11.78;31.34
60019;BME280;45870;42.528;26.740;2023-02-16T06:27:54;101172.91;;;11.58;31.38
60019;BME280;45870;42.528;26.740;2023-02-16T06:30:22;101167.19;;;12.07;31.19
60019;BME280;45870;42.528;26.740;2023-02-16T06:32:48;101168.47;;;13.52;29.22
60019;BME280;45870;42.528;26.740;2023-02-16T06:35:14;101170.94;;;13.91;29.00
60019;BME280;45870;42.528;26.740;2023-02-16T06:37:39;101169.59;;;14.25;28.44
60019;BME280;45870;42.528;26.740;2023-02-16T06:40:06;101173.31;;;15.46;27.35
60019;BME280;45870;42.528;26.740;2023-02-16T06:42:41;101173.34;;;14.31;28.06
60019;BME280;45870;42.528;26.740;2023-02-16T06:45:08;101178.31;;;15.49;27.38
60019;BME280;45870;42.528;26.740;2023-02-16T06:47:34;101174.94;;;13.51;29.07
60019;BME280;45870;42.528;26.740;2023-02-16T06:50:00;101151.69;;;10.60;34.40
60019;BME280;45870;42.528;26.740;2023-02-16T06:52:26;101178.09;;;10.58;34.00
60019;BME280;45870;42.528;26.740;2023-02-16T06:54:52;101190.84;;;11.11;32.98
60019;BME280;45870;42.528;26.740;2023-02-16T06:57:17;101182.34;;;9.75;35.47
60019;BME280;45870;42.528;26.740;2023-02-16T06:59:43;101179.78;;;10.99;34.19
60019;BME280;45870;42.528;26.740;2023-02-16T07:02:09;101187.78;;;11.81;33.16
60019;BME280;45870;42.528;26.740;2023-02-16T07:04:35;101189.53;;;11.54;34.93
60019;BME280;45870;42.528;26.740;2023-02-16T07:07:01;101132.88;;;11.20;32.78
60019;BME280;45870;42.528;26.740;2023-02-16T07:09:26;101184.25;;;12.14;32.53
60019;BME280;45870;42.528;26.740;2023-02-16T07:11:52;101191.50;;;13.74;30.05
60019;BME280;45870;42.528;26.740;2023-02-16T07:14:19;101190.44;;;12.80;31.32
60019;BME280;45870;42.528;26.740;2023-02-16T07:16:44;101190.81;;;12.90;31.66
60019;BME280;45870;42.528;26.740;2023-02-16T07:19:10;101196.75;;;14.75;28.43
60019;BME280;45870;42.528;26.740;2023-02-16T07:21:36;101184.56;;;11.58;33.18
60019;BME280;45870;42.528;26.740;2023-02-16T07:24:02;101170.19;;;11.58;32.29
60019;BME280;45870;42.528;26.740;2023-02-16T07:26:28;101183.50;;;11.52;34.75
60019;BME280;45870;42.528;26.740;2023-02-16T07:28:53;101195.25;;;12.58;32.51
60019;BME280;45870;42.528;26.740;2023-02-16T07:31:19;101183.00;;;12.36;32.86
60019;BME280;45870;42.528;26.740;2023-02-16T07:33:45;101180.88;;;14.35;30.38
60019;BME280;45870;42.528;26.740;2023-02-16T07:36:12;101193.78;;;12.69;31.86
60019;BME280;45870;42.528;26.740;2023-02-16T07:38:38;101191.91;;;14.09;30.01
60019;BME280;45870;42.528;26.740;2023-02-16T07:41:06;101184.34;;;12.97;31.38
60019;BME280;45870;42.528;26.740;2023-02-16T07:43:32;101184.91;;;14.69;29.99
60019;BME280;45870;42.528;26.740;2023-02-16T07:45:59;101179.72;;;13.56;31.50
60019;BME280;45870;42.528;26.740;2023-02-16T07:48:25;101185.47;;;14.35;29.80
60019;BME280;45870;42.528;26.740;2023-02-16T07:50:50;101178.88;;;14.85;30.00
60019;BME280;45870;42.528;26.740;2023-02-16T07:53:16;101177.13;;;11.80;34.42
60019;BME280;45870;42.528;26.740;2023-02-16T07:55:45;101129.47;;;12.25;33.85
60019;BME280;45870;42.528;26.740;2023-02-16T07:58:11;101092.44;;;11.86;34.46
60019;BME280;45870;42.528;26.740;2023-02-16T08:00:53;101180.13;;;14.15;31.46
60019;BME280;45870;42.528;26.740;2023-02-16T08:03:19;101180.28;;;12.56;33.70
60019;BME280;45870;42.528;26.740;2023-02-16T08:05:45;101178.00;;;12.13;35.31
60019;BME280;45870;42.528;26.740;2023-02-16T08:08:10;101184.78;;;11.63;36.81
60019;BME280;45870;42.528;26.740;2023-02-16T08:10:36;101131.31;;;11.65;36.29
60019;BME280;45870;42.528;26.740;2023-02-16T08:13:02;101178.75;;;9.68;40.64
60019;BME280;45870;42.528;26.740;2023-02-16T08:15:27;101167.66;;;10.89;38.77
60019;BME280;45870;42.528;26.740;2023-02-16T08:17:53;101169.63;;;9.90;41.07
60019;BME280;45870;42.528;26.740;2023-02-16T08:20:19;101171.88;;;11.59;38.02
60019;BME280;45870;42.528;26.740;2023-02-16T08:22:44;101171.31;;;9.49;41.52
60019;BME280;45870;42.528;26.740;2023-02-16T08:25:11;100935.81;;;9.01;40.22
60019;BME280;45870;42.528;26.740;2023-02-16T08:27:40;101163.56;;;10.99;39.17
60019;BME280;45870;42.528;26.740;2023-02-16T08:30:07;101160.38;;;11.43;38.24
60019;BME280;45870;42.528;26.740;2023-02-16T08:32:38;101155.53;;;11.99;38.02
60019;BME280;45870;42.528;26.740;2023-02-16T08:35:06;101152.09;;;11.65;37.17
60019;BME280;45870;42.528;26.740;2023-02-16T08:37:33;101149.91;;;11.88;37.25
60019;BME280;45870;42.528;26.740;2023-02-16T08:39:59;101145.25;;;13.25;35.61
60019;BME280;45870;42.528;26.740;2023-02-16T08:42:26;101140.72;;;11.09;38.44
60019;BME280;45870;42.528;26.740;2023-02-16T08:44:52;101130.28;;;10.51;39.73
60019;BME280;45870;42.528;26.740;2023-02-16T08:47:18;101143.00;;;11.79;37.99
60019;BME280;45870;42.528;26.740;2023-02-16T08:49:45;101141.34;;;11.78;37.45
60019;BME280;45870;42.528;26.740;2023-02-16T08:52:12;101131.81;;;11.08;39.48
60019;BME280;45870;42.528;26.740;2023-02-16T08:54:38;101045.59;;;11.39;37.86
60019;BME280;45870;42.528;26.740;2023-02-16T08:57:04;101143.78;;;11.46;38.36
60019;BME280;45870;42.528;26.740;2023-02-16T08:59:30;101144.50;;;11.14;38.80
60019;BME280;45870;42.528;26.740;2023-02-16T09:01:57;101149.81;;;12.73;35.86
60019;BME280;45870;42.528;26.740;2023-02-16T09:04:23;101078.69;;;11.68;37.29
60019;BME280;45870;42.528;26.740;2023-02-16T09:06:50;101127.41;;;12.07;37.87
60019;BME280;45870;42.528;26.740;2023-02-16T09:09:17;101135.91;;;12.50;37.74
60019;BME280;45870;42.528;26.740;2023-02-16T09:11:43;101093.44;;;12.37;36.32
60019;BME280;45870;42.528;26.740;2023-02-16T09:14:09;101110.22;;;12.72;35.79
60019;BME280;45870;42.528;26.740;2023-02-16T09:16:35;101148.41;;;14.40;33.75
60019;BME280;45870;42.528;26.740;2023-02-16T09:19:04;101140.91;;;13.17;35.96
60019;BME280;45870;42.528;26.740;2023-02-16T09:21:31;101140.75;;;13.50;35.40
60019;BME280;45870;42.528;26.740;2023-02-16T09:23:59;101144.03;;;13.21;36.25
60019;BME280;45870;42.528;26.740;2023-02-16T09:26:29;101141.28;;;15.00;32.71
60019;BME280;45870;42.528;26.740;2023-02-16T09:28:55;101145.47;;;13.23;36.12
60019;BME280;45870;42.528;26.740;2023-02-16T09:31:24;101134.50;;;13.05;36.51
60019;BME280;45870;42.528;26.740;2023-02-16T09:33:54;101135.06;;;13.83;35.13
60019;BME280;45870;42.528;26.740;2023-02-16T09:36:20;101135.81;;;14.64;34.02
60019;BME280;45870;42.528;26.740;2023-02-16T09:38:46;101131.53;;;15.41;32.07
60019;BME280;45870;42.528;26.740;2023-02-16T09:44:25;101125.19;;;15.88;31.13
60019;BME280;45870;42.528;26.740;2023-02-16T09:46:58;101118.84;;;14.50;33.33
60019;BME280;45870;42.528;26.740;2023-02-16T09:49:33;101119.41;;;14.10;34.63
60019;BME280;45870;42.528;26.740;2023-02-16T09:52:21;101115.47;;;15.21;32.18
60019;BME280;45870;42.528;26.740;2023-02-16T09:54:52;101107.03;;;15.11;32.78
60019;BME280;45870;42.528;26.740;2023-02-16T09:57:34;101114.63;;;14.73;33.67
60019;BME280;45870;42.528;26.740;2023-02-16T10:00:10;101103.75;;;15.80;31.08
60019;BME280;45870;42.528;26.740;2023-02-16T10:02:51;100948.50;;;14.15;33.03
60019;BME280;45870;42.528;26.740;2023-02-16T10:05:28;101108.19;;;14.85;33.36
60019;BME280;45870;42.528;26.740;2023-02-16T10:13:25;101093.72;;;14.73;33.89
60019;BME280;45870;42.528;26.740;2023-02-16T10:15:54;101079.97;;;15.46;31.36
60019;BME280;45870;42.528;26.740;2023-02-16T10:18:32;101090.25;;;15.14;32.69
60019;BME280;45870;42.528;26.740;2023-02-16T10:21:05;101045.75;;;14.24;33.62
60019;BME280;45870;42.528;26.740;2023-02-16T10:23:50;101088.50;;;14.90;32.01
60019;BME280;45870;42.528;26.740;2023-02-16T10:26:41;101075.53;;;15.52;32.49
60019;BME280;45870;42.528;26.740;2023-02-16T10:29:16;101086.31;;;14.62;33.07
60019;BME280;45870;42.528;26.740;2023-02-16T10:32:10;101084.19;;;14.82;32.94
60019;BME280;45870;42.528;26.740;2023-02-16T10:34:50;101083.69;;;14.74;32.65
60019;BME280;45870;42.528;26.740;2023-02-16T10:37:41;101085.88;;;15.13;31.97
60019;BME280;45870;42.528;26.740;2023-02-16T10:45:23;101066.16;;;14.88;32.08
60019;BME280;45870;42.528;26.740;2023-02-16T10:47:50;101058.75;;;15.66;31.42
60019;BME280;45870;42.528;26.740;2023-02-16T10:50:30;101064.47;;;15.46;31.54
60019;BME280;45870;42.528;26.740;2023-02-16T10:53:05;101049.88;;;14.09;33.33
60019;BME280;45870;42.528;26.740;2023-02-16T10:55:36;101054.03;;;15.62;30.95
60019;BME280;45870;42.528;26.740;2023-02-16T10:58:02;101066.06;;;15.24;32.47
60019;BME280;45870;42.528;26.740;2023-02-16T11:00:47;101059.50;;;15.43;31.18
60019;BME280;45870;42.528;26.740;2023-02-16T11:03:18;101050.88;;;15.05;32.51
60019;BME280;45870;42.528;26.740;2023-02-16T11:05:48;101023.22;;;15.49;30.85
60019;BME280;45870;42.528;26.740;2023-02-16T11:08:13;100976.78;;;15.33;29.52
60019;BME280;45870;42.528;26.740;2023-02-16T11:10:41;101045.22;;;15.18;30.67
60019;BME280;45870;42.528;26.740;2023-02-16T11:13:23;101032.03;;;15.75;30.02
60019;BME280;45870;42.528;26.740;2023-02-16T11:15:51;101024.91;;;16.20;29.66
60019;BME280;45870;42.528;26.740;2023-02-16T11:18:40;101042.44;;;14.95;30.47
60019;BME280;45870;42.528;26.740;2023-02-16T11:21:09;100975.28;;;15.37;29.97
60019;BME280;45870;42.528;26.740;2023-02-16T11:23:42;101028.94;;;16.18;29.64
60019;BME280;45870;42.528;26.740;2023-02-16T11:28:38;100935.72;;;16.67;27.50
60019;BME280;45870;42.528;26.740;2023-02-16T11:31:17;101006.81;;;15.91;29.51
60019;BME280;45870;42.528;26.740;2023-02-16T11:34:03;101009.25;;;16.27;28.21
60019;BME280;45870;42.528;26.740;2023-02-16T11:36:44;101013.78;;;15.87;27.88
60019;BME280;45870;42.528;26.740;2023-02-16T11:39:21;101002.22;;;15.27;29.74
60019;BME280;45870;42.528;26.740;2023-02-16T11:46:48;100941.63;;;16.36;27.56
60019;BME280;45870;42.528;26.740;2023-02-16T11:49:28;100997.94;;;15.72;27.94
60019;BME280;45870;42.528;26.740;2023-02-16T11:51:55;100944.72;;;17.29;25.49
60019;BME280;45870;42.528;26.740;2023-02-16T11:54:21;100997.94;;;16.70;26.60
60019;BME280;45870;42.528;26.740;2023-02-16T11:57:05;100937.84;;;17.10;25.31
60019;BME280;45870;42.528;26.740;2023-02-16T11:59:36;100948.44;;;16.78;26.52
60019;BME280;45870;42.528;26.740;2023-02-16T12:02:53;100965.03;;;16.88;27.45
60019;BME280;45870;42.528;26.740;2023-02-16T12:05:38;100979.66;;;17.61;24.65
60019;BME280;45870;42.528;26.740;2023-02-16T12:08:13;100984.31;;;18.37;24.71
60019;BME280;45870;42.528;26.740;2023-02-16T12:13:36;100966.66;;;18.93;23.26
60019;BME280;45870;42.528;26.740;2023-02-16T12:16:19;100960.38;;;17.51;25.23
60019;BME280;45870;42.528;26.740;2023-02-16T12:21:53;100905.72;;;19.66;21.33
60019;BME280;45870;42.528;26.740;2023-02-16T12:24:52;100959.75;;;19.76;22.27
60019;BME280;45870;42.528;26.740;2023-02-16T12:27:44;100949.50;;;17.89;23.51
60019;BME280;45870;42.528;26.740;2023-02-16T12:33:15;100941.47;;;19.50;21.91
60019;BME280;45870;42.528;26.740;2023-02-16T12:41:24;100853.75;;;17.40;23.83
60019;BME280;45870;42.528;26.740;2023-02-16T12:43:59;100933.69;;;17.91;23.33
60019;BME280;45870;42.528;26.740;2023-02-16T12:46:33;100853.94;;;15.99;25.89
60019;BME280;45870;42.528;26.740;2023-02-16T12:49:24;100924.66;;;18.12;23.48
60019;BME280;45870;42.528;26.740;2023-02-16T12:51:56;100921.94;;;16.34;26.32
60019;BME280;45870;42.528;26.740;2023-02-16T12:55:06;100914.53;;;17.53;23.85
60019;BME280;45870;42.528;26.740;2023-02-16T12:57:35;100909.56;;;19.33;21.45
60019;BME280;45870;42.528;26.740;2023-02-16T13:00:19;100908.84;;;17.92;23.18
60019;BME280;45870;42.528;26.740;2023-02-16T13:03:10;100909.50;;;17.28;24.12
60019;BME280;45870;42.528;26.740;2023-02-16T13:05:40;100901.88;;;16.80;25.14
60019;BME280;45870;42.528;26.740;2023-02-16T13:08:28;100905.31;;;17.20;25.18
60019;BME280;45870;42.528;26.740;2023-02-16T13:13:35;100729.53;;;16.99;23.58
60019;BME280;45870;42.528;26.740;2023-02-16T13:16:21;100900.56;;;17.87;24.15
60019;BME280;45870;42.528;26.740;2023-02-16T13:18:52;100895.84;;;18.70;22.08
60019;BME280;45870;42.528;26.740;2023-02-16T13:27:41;100891.75;;;19.68;21.94
60019;BME280;45870;42.528;26.740;2023-02-16T13:35:53;100883.56;;;18.02;23.14
60019;BME280;45870;42.528;26.740;2023-02-16T13:44:23;100816.72;;;18.90;21.56
60019;BME280;45870;42.528;26.740;2023-02-16T13:46:52;100886.13;;;19.89;20.97
60019;BME280;45870;42.528;26.740;2023-02-16T13:49:36;100887.44;;;18.06;22.65
60019;BME280;45870;42.528;26.740;2023-02-16T13:52:08;100876.56;;;19.50;21.65
60019;BME280;45870;42.528;26.740;2023-02-16T13:54:37;100879.88;;;18.35;22.46
60019;BME280;45870;42.528;26.740;2023-02-16T13:57:11;100885.47;;;18.23;22.79
60019;BME280;45870;42.528;26.740;2023-02-16T14:02:09;100870.03;;;21.21;18.77
60019;BME280;45870;42.528;26.740;2023-02-16T14:12:14;100857.06;;;20.91;18.99
60019;BME280;45870;42.528;26.740;2023-02-16T14:22:19;100869.47;;;23.11;17.03
60019;BME280;45870;42.528;26.740;2023-02-16T14:24:56;100858.34;;;21.95;17.76
60019;BME280;45870;42.528;26.740;2023-02-16T14:27:41;100869.03;;;19.35;20.47
60019;BME280;45870;42.528;26.740;2023-02-16T14:30:27;100867.22;;;19.09;21.27
60019;BME280;45870;42.528;26.740;2023-02-16T14:33:02;100868.53;;;21.84;18.13
60019;BME280;45870;42.528;26.740;2023-02-16T14:35:35;100862.19;;;20.32;19.06
60019;BME280;45870;42.528;26.740;2023-02-16T14:38:04;100862.78;;;19.77;19.66
60019;BME280;45870;42.528;26.740;2023-02-16T14:40:44;100860.69;;;21.32;18.19
60019;BME280;45870;42.528;26.740;2023-02-16T14:43:22;100859.28;;;22.78;17.28
60019;BME280;45870;42.528;26.740;2023-02-16T14:54:46;100858.44;;;21.49;18.01
60019;BME280;45870;42.528;26.740;2023-02-16T14:57:32;100589.63;;;20.03;17.90